Time;durP1;ratioP1;P1;durP2;ratioP2;P2;SDS_P1;SDS_P2;PMS_P1;PMS_P2;Temp;Humidity;BMP_temperature;BMP_pressure;BME280_temperature;BME280_humidity;BME280_pressure;Samples;Min_cycle;Max_cycle;Signal;HPM_P1;HPM_P2
2023/11/23 09:26:07;;;;;;;1.83;1.00;;;;;;;22.72;43.26;100886.94;4399789;29;20242;-63
2023/11/23 09:28:19;;;;;;;1.35;0.80;;;;;;;22.73;43.84;100877.13;4404675;29;20048;-66
2023/11/23 09:30:30;;;;;;;2.17;1.20;;;;;;;22.64;43.91;100870.75;4403777;29;20044;-66
2023/11/23 09:32:42;;;;;;;3.47;1.15;;;;;;;22.76;43.66;100873.47;4404410;29;20049;-65
2023/11/23 09:34:54;;;;;;;4.38;1.35;;;;;;;22.60;44.25;100872.69;4403770;29;20093;-65
2023/11/23 09:37:06;;;;;;;2.03;0.95;;;;;;;22.56;43.89;100868.91;4404092;29;20079;-65
2023/11/23 09:39:20;;;;;;;2.25;1.20;;;;;;;22.76;43.71;100869.75;4404421;29;20047;-65
2023/11/23 09:41:36;;;;;;;3.80;1.40;;;;;;;22.84;43.33;100860.94;4404852;29;20151;-65
2023/11/23 09:43:49;;;;;;;4.68;1.30;;;;;;;22.78;43.73;100864.47;4405317;29;20032;-65
2023/11/23 09:46:01;;;;;;;2.72;1.10;;;;;;;22.88;43.51;100861.81;4403782;29;20056;-66
2023/11/23 09:48:15;;;;;;;1.38;1.13;;;;;;;22.96;43.62;100860.78;4387296;29;20664;-65
2023/11/23 09:50:29;;;;;;;2.83;1.30;;;;;;;22.98;43.60;100854.63;4403950;29;20033;-66
2023/11/23 09:52:41;;;;;;;4.63;1.30;;;;;;;22.99;43.45;100848.50;4404193;29;20041;-66
2023/11/23 09:54:56;;;;;;;1.98;1.05;;;;;;;22.99;43.10;100851.38;4402443;29;20049;-66
2023/11/23 09:57:09;;;;;;;3.95;1.10;;;;;;;23.03;42.94;100849.44;4404679;29;20064;-66
2023/11/23 09:59:20;;;;;;;2.58;1.17;;;;;;;23.04;43.13;100836.69;4403971;29;20048;-66
2023/11/23 10:01:32;;;;;;;1.42;1.00;;;;;;;23.05;43.26;100849.06;4404112;29;20040;-66
2023/11/23 10:03:45;;;;;;;2.80;1.13;;;;;;;23.06;42.79;100847.84;4404123;29;20091;-66
2023/11/23 10:05:56;;;;;;;1.85;1.20;;;;;;;23.04;43.03;100830.13;4387481;29;20939;-66
2023/11/23 10:08:07;;;;;;;1.77;1.02;;;;;;;23.02;43.51;100818.16;4404591;29;20127;-66
2023/11/23 10:10:18;;;;;;;1.52;1.15;;;;;;;23.01;43.52;100810.69;4404026;29;20386;-66
2023/11/23 10:12:29;;;;;;;2.33;1.10;;;;;;;23.00;43.16;100829.19;4404342;29;20473;-66
2023/11/23 10:14:40;;;;;;;2.78;1.20;;;;;;;22.99;43.46;100819.72;4404152;29;20044;-65
2023/11/23 10:16:51;;;;;;;2.95;1.45;;;;;;;22.95;43.72;100810.19;4403213;29;20040;-67
2023/11/23 10:19:03;;;;;;;2.42;1.33;;;;;;;23.01;43.79;100787.66;4386804;29;20049;-67
2023/11/23 10:21:14;;;;;;;3.33;1.60;;;;;;;23.04;43.76;100789.81;4403832;29;20159;-66
2023/11/23 10:23:24;;;;;;;3.92;1.60;;;;;;;23.09;43.69;100781.69;4405475;29;20043;-70
2023/11/23 10:25:35;;;;;;;4.32;1.80;;;;;;;23.08;43.72;100784.94;4403901;29;20045;-70
2023/11/23 10:27:46;;;;;;;4.07;1.77;;;;;;;23.05;44.11;100783.69;4403894;29;20044;-67
2023/11/23 10:29:57;;;;;;;4.60;1.65;;;;;;;22.94;44.41;100767.38;4403461;29;20497;-69
2023/11/23 10:32:09;;;;;;;5.72;1.90;;;;;;;22.99;44.06;100758.44;4403413;29;20520;-69
2023/11/23 10:34:20;;;;;;;4.95;1.70;;;;;;;23.00;43.71;100758.06;4403774;29;20044;-69
2023/11/23 10:36:31;;;;;;;4.68;2.00;;;;;;;23.01;44.15;100758.88;4403087;29;20040;-69
2023/11/23 10:38:41;;;;;;;4.45;1.90;;;;;;;23.00;44.10;100774.50;4404378;29;20465;-69
2023/11/23 10:40:52;;;;;;;2.80;1.65;;;;;;;23.01;43.96;100773.28;4405804;29;20073;-69
2023/11/23 10:43:03;;;;;;;5.25;1.90;;;;;;;22.96;44.25;100770.72;4404667;29;20378;-69
2023/11/23 10:45:16;;;;;;;4.45;1.88;;;;;;;22.94;44.33;100755.88;4387410;29;20041;-69
2023/11/23 10:47:29;;;;;;;2.90;1.95;;;;;;;22.95;44.44;100751.78;4403924;29;20039;-69
2023/11/23 10:49:42;;;;;;;2.38;1.67;;;;;;;22.93;44.67;100748.47;4404435;29;20082;-69
2023/11/23 10:51:54;;;;;;;4.03;1.90;;;;;;;22.90;44.30;100737.69;4386082;29;20045;-69
2023/11/23 10:54:04;;;;;;;4.13;1.75;;;;;;;22.92;44.37;100726.63;4404766;29;20043;-69
2023/11/23 10:56:29;;;;;;;6.47;1.70;;;;;;;22.95;44.38;100720.09;4403037;29;20039;-69
2023/11/23 10:58:45;;;;;;;5.53;2.00;;;;;;;22.97;44.18;100709.06;4403394;29;20614;-69
2023/11/23 11:00:58;;;;;;;5.55;2.35;;;;;;;22.96;45.04;100713.16;4403544;29;20037;-69
2023/11/23 11:03:11;;;;;;;4.25;1.90;;;;;;;22.96;44.96;100710.28;4403259;29;20882;-69
2023/11/23 11:05:29;;;;;;;5.28;1.88;;;;;;;22.93;45.62;100711.03;4402776;29;20045;-69
2023/11/23 11:07:40;;;;;;;4.85;2.15;;;;;;;22.94;45.76;100721.34;4402741;29;20880;-69
2023/11/23 11:10:00;;;;;;;5.70;2.10;;;;;;;22.91;45.24;100722.09;4403980;29;20029;-69
2023/11/23 11:12:13;;;;;;;3.50;2.00;;;;;;;22.94;45.37;100721.34;4404145;29;20037;-69
2023/11/23 11:14:36;;;;;;;5.45;1.90;;;;;;;22.90;45.38;100720.41;4403600;29;20128;-69
2023/11/23 11:16:47;;;;;;;5.13;1.73;;;;;;;22.94;45.04;100715.56;4403291;29;20132;-69
2023/11/23 11:19:05;;;;;;;5.45;1.90;;;;;;;23.00;44.96;100708.28;4403008;29;20988;-69
2023/11/23 11:21:21;;;;;;;6.68;2.58;;;;;;;23.04;45.28;100695.63;4404395;29;20592;-69
2023/11/23 11:23:51;;;;;;;11.82;3.70;;;;;;;23.00;46.08;100680.34;4403415;29;20044;-69
2023/11/23 11:26:09;;;;;;;11.63;3.65;;;;;;;22.98;45.83;100694.28;4385220;29;20117;-69
2023/11/23 11:28:22;;;;;;;11.90;3.88;;;;;;;22.94;46.10;100678.16;4409118;29;20041;-69
2023/11/23 11:30:33;;;;;;;12.93;3.83;;;;;;;22.95;46.35;100677.78;4390643;29;20047;-69
2023/11/23 11:32:45;;;;;;;15.35;4.47;;;;;;;22.95;46.05;100676.94;4406951;29;20636;-69
2023/11/23 11:35:02;;;;;;;14.75;4.28;;;;;;;22.94;45.88;100675.28;4390304;29;20049;-69
2023/11/23 11:37:14;;;;;;;16.52;4.65;;;;;;;22.94;45.90;100686.78;4386536;29;20143;-69
2023/11/23 11:39:32;;;;;;;15.02;4.30;;;;;;;22.97;46.27;100677.38;4386030;29;20045;-69
2023/11/23 11:41:47;;;;;;;15.38;4.57;;;;;;;22.92;46.53;100667.03;4403130;29;20053;-69
2023/11/23 11:44:03;;;;;;;16.05;4.78;;;;;;;22.92;46.11;100666.19;4403222;29;20033;-69
2023/11/23 11:46:15;;;;;;;12.93;4.22;;;;;;;22.94;45.94;100663.75;4403128;29;20044;-69
2023/11/23 11:48:26;;;;;;;15.57;4.60;;;;;;;22.91;46.15;100658.78;4390975;29;20045;-69
2023/11/23 11:50:36;;;;;;;13.60;4.30;;;;;;;22.91;46.10;100664.53;4391688;29;20041;-69
2023/11/23 11:52:49;;;;;;;12.50;4.47;;;;;;;22.91;45.95;100655.88;4409457;29;20045;-69
2023/11/23 11:55:00;;;;;;;13.10;4.53;;;;;;;;;;4410250;29;20041;-69
2023/11/23 11:57:11;;;;;;;17.58;4.85;;;;;;;;;;4403868;29;20075;-69
2023/11/23 11:59:24;;;;;;;13.20;5.03;;;;;;;22.90;46.56;100649.28;4407386;29;20084;-69
2023/11/23 12:01:35;;;;;;;15.65;4.40;;;;;;;22.89;46.07;100658.31;4406082;29;20036;-69
2023/11/23 12:03:46;;;;;;;14.70;4.72;;;;;;;22.89;46.32;100646.81;4406666;29;20375;-69
2023/11/23 12:05:58;;;;;;;15.18;4.43;;;;;;;22.91;46.34;100650.13;4405771;29;20823;-69
2023/11/23 12:08:16;;;;;;;13.90;4.30;;;;;;;22.88;46.39;100653.78;4406125;29;20048;-69
2023/11/23 12:10:39;;;;;;;10.38;3.80;;;;;;;22.88;46.16;100650.91;4388432;29;20041;-69
2023/11/23 12:12:52;;;;;;;11.50;4.50;;;;;;;22.87;46.37;100649.22;4406535;29;20047;-69
2023/11/23 12:15:03;;;;;;;17.08;4.35;;;;;;;22.90;46.06;100655.03;4405661;29;20028;-69
2023/11/23 12:17:14;;;;;;;11.18;4.50;;;;;;;22.84;46.37;100635.59;4406011;29;20107;-69
2023/11/23 12:19:26;;;;;;;11.43;4.18;;;;;;;22.88;46.26;100637.31;4408694;29;20108;-69
2023/11/23 12:21:37;;;;;;;10.18;3.83;;;;;;;22.88;46.00;100636.50;4408973;29;20779;-69
2023/11/23 12:23:47;;;;;;;11.88;3.95;;;;;;;22.84;46.29;100630.69;4393643;29;20040;-69
2023/11/23 12:26:00;;;;;;;11.68;3.78;;;;;;;;;;4406651;29;21170;-69
2023/11/23 12:28:13;;;;;;;11.68;4.28;;;;;;;22.87;46.35;100611.81;4389810;29;20080;-69
2023/11/23 12:30:25;;;;;;;13.73;4.63;;;;;;;22.90;46.32;100599.53;4405649;29;20048;-69
2023/11/23 12:32:37;;;;;;;13.43;4.07;;;;;;;22.87;46.26;100574.38;4405857;29;20048;-69
2023/11/23 12:34:47;;;;;;;9.82;3.90;;;;;;;22.83;46.33;100579.25;4408364;29;20522;-69
2023/11/23 12:36:59;;;;;;;11.63;4.32;;;;;;;22.85;45.84;100576.84;4406271;29;20047;-69
2023/11/23 12:39:10;;;;;;;10.25;3.65;;;;;;;22.89;46.09;100580.59;4406063;29;20048;-69
2023/11/23 12:41:21;;;;;;;10.88;3.60;;;;;;;22.85;46.36;100573.97;4394652;29;20029;-69
2023/11/23 12:43:32;;;;;;;8.35;3.60;;;;;;;22.85;46.19;100563.25;4405518;29;20049;-69
2023/11/23 12:45:43;;;;;;;7.97;3.67;;;;;;;22.85;45.75;100556.69;4408004;29;20881;-69
2023/11/23 12:47:54;;;;;;;3.50;2.30;;;;;;;21.91;45.74;100550.66;4404205;29;20047;-69
2023/11/23 12:50:10;;;;;;;2.88;2.50;;;;;;;21.59;41.40;100544.16;4403721;29;20040;-69
2023/11/23 12:52:20;;;;;;;3.42;2.83;;;;;;;21.46;40.63;100536.88;4388258;29;20045;-69
2023/11/23 12:54:32;;;;;;;2.95;2.55;;;;;;;21.36;40.40;100540.31;4390011;29;20497;-69
2023/11/23 12:56:43;;;;;;;2.72;2.42;;;;;;;21.32;40.62;100545.16;4406028;29;20044;-69
2023/11/23 12:58:54;;;;;;;3.03;2.72;;;;;;;21.27;40.92;100542.56;4409779;29;20044;-69
2023/11/23 13:01:05;;;;;;;2.90;2.55;;;;;;;21.23;41.03;100538.75;4390151;29;20109;-69
2023/11/23 13:03:15;;;;;;;2.92;2.63;;;;;;;21.21;41.42;100531.75;4406956;29;20040;-69
2023/11/23 13:05:26;;;;;;;2.83;2.58;;;;;;;21.17;41.35;100531.66;4397391;29;20080;-61
2023/11/23 13:07:38;;;;;;;4.13;2.88;;;;;;;21.17;41.27;100516.50;4406622;29;20048;-61
2023/11/23 13:09:49;;;;;;;2.95;2.38;;;;;;;21.16;41.35;100532.03;4404495;29;20092;-60
2023/11/23 13:12:03;;;;;;;3.22;2.55;;;;;;;21.15;41.36;100528.34;4405553;29;20084;-60
2023/11/23 13:14:15;;;;;;;2.83;2.55;;;;;;;21.15;41.34;100507.41;4405409;29;20116;-60
2023/11/23 13:16:26;;;;;;;2.50;2.30;;;;;;;21.14;41.68;100509.44;4405229;29;20049;-60
2023/11/23 13:18:37;;;;;;;2.50;2.30;;;;;;;21.14;41.47;100515.19;4404537;29;20048;-60
2023/11/23 13:20:48;;;;;;;3.63;2.50;;;;;;;21.14;41.66;100505.72;4404477;29;20037;-60
2023/11/23 13:23:03;;;;;;;2.60;2.40;;;;;;;21.11;41.56;100484.38;4405313;29;20045;-60
2023/11/23 13:25:16;;;;;;;2.70;2.25;;;;;;;21.08;42.03;100492.88;4404925;29;20052;-60
2023/11/23 13:27:27;;;;;;;3.00;2.50;;;;;;;21.06;41.94;100483.84;4404097;29;20049;-60
2023/11/23 13:29:38;;;;;;;2.45;2.25;;;;;;;21.04;41.97;100487.03;4402196;29;20097;-60
2023/11/23 13:31:49;;;;;;;2.97;2.38;;;;;;;21.03;42.04;100487.41;4405299;29;20045;-60
2023/11/23 13:34:00;;;;;;;2.30;2.10;;;;;;;21.04;41.82;100486.22;4404017;29;20051;-60
2023/11/23 13:36:13;;;;;;;2.55;2.35;;;;;;;21.02;42.16;100478.00;4405726;29;20048;-60
2023/11/23 13:38:23;;;;;;;2.83;2.17;;;;;;;21.02;42.00;100483.75;4404352;29;21313;-60
2023/11/23 13:40:34;;;;;;;2.60;2.40;;;;;;;21.01;41.68;100479.19;4404515;29;20036;-60
2023/11/23 13:42:46;;;;;;;2.60;2.22;;;;;;;21.01;41.96;100464.03;4404818;29;21353;-60
2023/11/23 13:44:57;;;;;;;2.47;2.28;;;;;;;20.99;41.95;100473.00;4387794;29;20059;-60
2023/11/23 13:47:08;;;;;;;2.38;2.17;;;;;;;20.98;42.11;100467.66;4404388;29;20041;-60
2023/11/23 13:49:20;;;;;;;3.30;2.47;;;;;;;20.99;41.99;100475.03;4404146;29;20084;-61
2023/11/23 13:51:31;;;;;;;2.67;2.35;;;;;;;20.98;42.12;100479.13;4405979;29;20607;-60
2023/11/23 13:53:42;;;;;;;2.83;2.30;;;;;;;20.97;42.06;100471.69;4404623;29;20043;-60
2023/11/23 13:55:53;;;;;;;2.88;2.10;;;;;;;20.96;42.00;100465.16;4404440;29;20442;-60
2023/11/23 13:58:06;;;;;;;3.00;2.15;;;;;;;20.97;41.86;100460.22;4404371;29;20049;-60
2023/11/23 14:00:22;;;;;;;2.20;2.00;;;;;;;20.95;42.28;100454.84;4405057;29;20032;-60
2023/11/23 14:02:36;;;;;;;2.47;2.20;;;;;;;20.96;42.29;100456.53;4387213;29;20056;-60
2023/11/23 14:04:46;;;;;;;2.75;2.22;;;;;;;20.94;42.44;100458.06;4404427;29;20036;-60
2023/11/23 14:06:58;;;;;;;3.03;2.33;;;;;;;20.94;42.36;100452.34;4404243;29;20037;-60
2023/11/23 14:09:17;;;;;;;1.92;1.83;;;;;;;20.94;42.26;100458.91;4404397;29;20594;-60
2023/11/23 14:11:27;;;;;;;2.58;2.10;;;;;;;20.94;41.81;100453.19;4405248;29;20049;-60
2023/11/23 14:13:38;;;;;;;2.38;2.15;;;;;;;20.93;42.09;100451.50;4404726;29;20493;-60
2023/11/23 14:15:49;;;;;;;2.30;2.10;;;;;;;20.93;42.33;100453.56;4385383;29;20082;-60
2023/11/23 14:18:00;;;;;;;2.72;2.30;;;;;;;20.92;42.24;100444.09;4387431;29;20089;-60
2023/11/23 14:20:12;;;;;;;2.67;2.25;;;;;;;20.91;42.12;100448.19;4403607;29;20052;-60
2023/11/23 14:22:23;;;;;;;3.95;2.70;;;;;;;20.91;42.54;100447.34;4403377;29;20028;-60
2023/11/23 14:24:33;;;;;;;2.20;2.00;;;;;;;20.91;41.88;100442.44;4403518;29;20044;-60
2023/11/23 14:26:44;;;;;;;2.20;2.00;;;;;;;20.90;42.27;100437.09;4402311;29;20048;-60
2023/11/23 14:28:54;;;;;;;2.22;2.03;;;;;;;20.90;42.33;100429.28;4404177;29;20123;-60
2023/11/23 14:31:08;;;;;;;3.47;2.30;;;;;;;20.91;41.91;100433.84;4404176;29;20494;-60
2023/11/23 14:33:19;;;;;;;2.85;2.55;;;;;;;20.91;42.13;100422.38;4403309;29;20115;-60
2023/11/23 14:35:31;;;;;;;2.40;2.20;;;;;;;20.90;42.39;100412.06;4403817;29;20047;-60
2023/11/23 14:37:43;;;;;;;2.30;2.10;;;;;;;20.90;42.30;100412.06;4405871;29;20036;-61
2023/11/23 14:39:54;;;;;;;2.55;2.13;;;;;;;20.89;42.22;100407.56;4389032;29;20833;-60
2023/11/23 14:42:06;;;;;;;2.50;1.85;;;;;;;20.89;42.43;100398.09;4407268;29;20056;-60
2023/11/23 14:44:17;;;;;;;2.20;2.00;;;;;;;20.87;42.11;100384.13;4407893;29;20032;-61
2023/11/23 14:46:30;;;;;;;2.25;2.05;;;;;;;20.88;42.40;100394.44;4406446;29;20044;-61
2023/11/23 14:48:41;;;;;;;2.40;2.20;;;;;;;20.89;42.52;100392.38;4404168;29;20076;-61
2023/11/23 14:50:52;;;;;;;2.67;2.20;;;;;;;20.88;42.38;100384.97;4403907;29;20044;-61
2023/11/23 14:53:02;;;;;;;2.35;2.15;;;;;;;20.88;42.25;100380.09;4404929;29;20498;-61
2023/11/23 14:55:14;;;;;;;2.80;2.10;;;;;;;20.87;42.52;100375.53;4405112;29;20044;-61
2023/11/23 14:57:25;;;;;;;2.30;2.10;;;;;;;20.87;42.38;100366.94;4404673;29;20045;-60
2023/11/23 14:59:36;;;;;;;2.30;2.10;;;;;;;20.86;42.41;100373.88;4401200;29;20144;-60
2023/11/23 15:01:47;;;;;;;2.60;2.30;;;;;;;20.85;42.56;100369.38;4403974;29;20588;-60
2023/11/23 15:03:57;;;;;;;2.38;2.17;;;;;;;20.85;42.30;100380.00;4404160;29;20099;-61
2023/11/23 15:06:08;;;;;;;3.42;2.10;;;;;;;20.85;42.57;100359.91;4404567;29;20028;-61
2023/11/23 15:08:19;;;;;;;2.55;2.35;;;;;;;20.86;42.65;100365.28;4403671;29;20032;-61
2023/11/23 15:10:31;;;;;;;2.97;2.10;;;;;;;20.86;42.42;100367.31;4403937;29;20043;-61
2023/11/23 15:12:49;;;;;;;2.47;2.28;;;;;;;20.85;42.56;100369.38;4403396;29;20813;-61
2023/11/23 15:15:00;;;;;;;2.38;2.17;;;;;;;20.85;42.24;100374.25;4403889;29;20156;-61
2023/11/23 15:17:10;;;;;;;2.83;2.20;;;;;;;20.83;42.62;100371.75;4404393;29;20135;-61
2023/11/23 15:19:21;;;;;;;2.28;2.08;;;;;;;20.85;42.73;100372.22;4404369;29;20618;-61
2023/11/23 15:21:32;;;;;;;2.22;2.00;;;;;;;20.84;42.66;100367.69;4403806;29;20595;-61
2023/11/23 15:23:43;;;;;;;2.40;2.15;;;;;;;20.83;42.37;100371.75;4404476;29;20041;-61
2023/11/23 15:25:54;;;;;;;2.65;2.42;;;;;;;20.83;42.59;100371.75;4405381;29;20044;-61
2023/11/23 15:28:07;;;;;;;2.35;2.10;;;;;;;20.83;42.74;100366.84;4403986;29;20075;-61
2023/11/23 15:30:17;;;;;;;2.78;2.50;;;;;;;20.83;42.80;100368.91;4403674;29;20052;-60
2023/11/23 15:32:28;;;;;;;2.88;2.20;;;;;;;20.83;42.83;100366.03;4405139;29;20067;-60
2023/11/23 15:34:38;;;;;;;2.20;2.00;;;;;;;20.82;42.99;100361.47;4406584;29;20123;-60
2023/11/23 15:36:51;;;;;;;2.47;2.15;;;;;;;20.83;42.69;100366.03;4407201;29;20111;-60
2023/11/23 15:39:06;;;;;;;2.38;1.92;;;;;;;20.83;42.33;100368.91;4407180;29;20048;-61
2023/11/23 15:41:17;;;;;;;2.00;1.90;;;;;;;20.82;42.71;100361.47;4406762;29;20041;-61
2023/11/23 15:43:28;;;;;;;2.30;2.10;;;;;;;20.83;42.61;100363.16;4406976;29;20045;-61
2023/11/23 15:45:42;;;;;;;2.22;2.08;;;;;;;20.82;42.95;100363.53;4408524;29;20028;-61
2023/11/23 15:47:52;;;;;;;2.20;2.00;;;;;;;20.82;43.15;100346.31;4391991;29;20156;-61
2023/11/23 15:50:07;;;;;;;2.17;2.05;;;;;;;20.81;43.26;100351.22;4407715;29;20151;-61
2023/11/23 15:52:18;;;;;;;2.30;2.10;;;;;;;20.81;42.97;100354.09;4406089;29;20100;-61
2023/11/23 15:54:28;;;;;;;2.60;2.40;;;;;;;20.81;43.12;100351.22;4407264;29;20071;-61
2023/11/23 15:56:39;;;;;;;2.17;2.00;;;;;;;20.82;43.09;100346.31;4406564;29;20040;-61
2023/11/23 15:58:50;;;;;;;2.30;2.10;;;;;;;20.81;43.39;100331.16;4406361;29;20044;-61
2023/11/23 16:01:07;;;;;;;3.03;2.33;;;;;;;20.79;43.24;100322.91;4406280;29;20040;-61
2023/11/23 16:03:17;;;;;;;2.38;2.10;;;;;;;20.79;43.70;100336.41;4406328;29;20037;-61
2023/11/23 16:05:29;;;;;;;2.30;2.10;;;;;;;20.80;43.45;100309.41;4406045;29;20052;-61
2023/11/23 16:07:39;;;;;;;2.95;2.38;;;;;;;20.79;43.53;100296.25;4408193;29;20029;-61
2023/11/23 16:09:50;;;;;;;2.67;2.10;;;;;;;20.80;43.97;100297.94;4393088;29;20057;-60
2023/11/23 16:12:01;;;;;;;2.60;2.40;;;;;;;20.79;43.82;100291.34;4391212;29;20041;-61
2023/11/23 16:14:12;;;;;;;2.95;2.50;;;;;;;20.80;44.16;100287.28;4407777;29;20044;-61
2023/11/23 16:16:23;;;;;;;2.78;2.42;;;;;;;20.80;44.25;100280.72;4404467;29;20501;-61
2023/11/23 16:18:35;;;;;;;2.60;2.40;;;;;;;20.81;44.21;100276.63;4406432;29;20052;-62
2023/11/23 16:20:45;;;;;;;2.40;2.20;;;;;;;20.79;44.41;100276.19;4405975;29;20572;-61
2023/11/23 16:22:56;;;;;;;2.63;2.30;;;;;;;20.79;43.83;100273.31;4405825;29;20072;-61
2023/11/23 16:25:08;;;;;;;3.00;2.70;;;;;;;20.78;44.10;100272.50;4405862;29;20123;-61
2023/11/23 16:27:19;;;;;;;2.53;2.33;;;;;;;20.80;44.22;100270.06;4406087;29;20043;-61
2023/11/23 16:29:30;;;;;;;2.58;2.38;;;;;;;20.78;44.24;100272.50;4406111;29;20610;-61
2023/11/23 16:31:40;;;;;;;2.58;2.38;;;;;;;20.78;44.30;100261.03;4406459;29;20069;-61
2023/11/23 16:33:53;;;;;;;2.45;2.25;;;;;;;20.78;44.18;100258.16;4406172;29;20171;-61
2023/11/23 16:36:04;;;;;;;2.60;2.35;;;;;;;20.79;44.16;100256.09;4405686;29;20906;-61
2023/11/23 16:38:15;;;;;;;3.55;2.60;;;;;;;20.78;44.03;100255.28;4406121;29;20108;-61
2023/11/23 16:40:26;;;;;;;2.88;2.42;;;;;;;20.77;44.40;100247.06;4405854;29;20847;-61
2023/11/23 16:42:39;;;;;;;2.65;2.45;;;;;;;20.78;44.08;100251.59;4406321;29;20161;-61
2023/11/23 16:44:50;;;;;;;2.83;2.50;;;;;;;20.76;44.41;100254.81;4388334;29;20088;-61
2023/11/23 16:47:00;;;;;;;2.60;2.20;;;;;;;20.76;44.57;100245.38;4405959;29;20139;-61
2023/11/23 16:49:11;;;;;;;2.30;2.10;;;;;;;20.77;44.51;100247.06;4406630;29;20111;-61
2023/11/23 16:51:25;;;;;;;2.60;2.40;;;;;;;20.77;44.44;100258.53;4406319;29;20049;-61
2023/11/23 16:53:37;;;;;;;2.53;2.33;;;;;;;20.77;44.34;100252.81;4406164;29;20040;-61
2023/11/23 16:55:48;;;;;;;2.40;2.20;;;;;;;20.78;44.27;100257.31;4406824;29;20893;-61
2023/11/23 16:57:59;;;;;;;2.30;2.10;;;;;;;20.76;44.80;100256.84;4405775;29;20049;-61
2023/11/23 17:00:11;;;;;;;2.30;2.10;;;;;;;20.77;44.91;100252.81;4405630;29;20066;-61
2023/11/23 17:02:22;;;;;;;2.05;1.85;;;;;;;20.76;44.84;100251.13;4405262;29;20116;-61
2023/11/23 17:04:33;;;;;;;2.63;2.10;;;;;;;20.76;44.99;100251.97;4406208;29;20045;-61
2023/11/23 17:06:44;;;;;;;2.40;2.20;;;;;;;20.77;44.92;100244.19;4406159;29;20047;-61
2023/11/23 17:08:55;;;;;;;1.98;1.88;;;;;;;20.77;44.92;100249.94;4405995;29;20036;-61
2023/11/23 17:11:08;;;;;;;3.13;2.20;;;;;;;20.76;45.01;100242.50;4405694;29;20045;-61
2023/11/23 17:13:21;;;;;;;2.40;2.20;;;;;;;20.75;44.96;100243.72;4388831;29;20129;-61
2023/11/23 17:15:32;;;;;;;2.20;2.00;;;;;;;20.76;45.29;100231.03;4405098;29;20036;-61
2023/11/23 17:17:45;;;;;;;3.20;2.33;;;;;;;20.75;45.26;100229.41;4404887;29;20044;-61
2023/11/23 17:19:56;;;;;;;2.08;1.98;;;;;;;20.75;45.08;100226.53;4406126;29;20048;-61
2023/11/23 17:22:07;;;;;;;2.17;1.98;;;;;;;20.75;45.21;100221.63;4405406;29;20120;-61
2023/11/23 17:24:18;;;;;;;2.28;2.08;;;;;;;20.74;45.48;100225.69;4404861;29;20172;-61
2023/11/23 17:26:30;;;;;;;2.72;2.22;;;;;;;20.74;45.23;100210.50;4406176;29;20833;-61
2023/11/23 17:28:41;;;;;;;3.00;2.70;;;;;;;20.75;45.15;100200.72;4405195;29;21562;-61
2023/11/23 17:30:51;;;;;;;2.60;2.30;;;;;;;20.74;45.32;100199.03;4405725;29;20059;-61
2023/11/23 17:33:02;;;;;;;4.20;2.60;;;;;;;20.72;45.33;100182.22;4405377;29;20425;-61
2023/11/23 17:35:14;;;;;;;2.25;2.05;;;;;;;20.74;45.62;100184.69;4387368;29;20037;-61
2023/11/23 17:37:27;;;;;;;2.50;2.30;;;;;;;20.74;45.29;100176.94;4406299;29;20048;-61
2023/11/23 17:39:39;;;;;;;2.85;2.50;;;;;;;20.74;45.21;100178.97;4388181;29;20985;-61
2023/11/23 17:48:48;;;;;;;2.92;2.30;;;;;;;20.80;44.98;100160.25;4400374;29;20549;-65
2023/11/23 17:50:59;;;;;;;2.50;2.30;;;;;;;20.79;45.22;100158.59;4406558;29;20040;-65
2023/11/23 17:53:10;;;;;;;2.20;2.00;;;;;;;20.80;45.04;100163.13;4414259;29;20040;-66
2023/11/23 17:55:22;;;;;;;2.42;2.10;;;;;;;20.78;44.98;100156.94;4410928;29;20559;-65
2023/11/23 17:57:34;;;;;;;3.08;2.25;;;;;;;20.77;45.14;100149.53;4404507;29;20048;-65
2023/11/23 17:59:47;;;;;;;2.67;2.40;;;;;;;20.76;45.32;100145.00;4404052;29;20133;-65
2023/11/23 18:01:59;;;;;;;2.92;2.50;;;;;;;20.75;45.56;100141.31;4404753;29;20044;-65
2023/11/23 18:04:20;;;;;;;2.63;2.40;;;;;;;20.76;45.40;100127.78;4405395;29;20044;-65
2023/11/23 18:06:31;;;;;;;2.20;2.00;;;;;;;20.75;45.41;100137.63;4404084;29;20052;-65
2023/11/23 18:08:42;;;;;;;3.50;2.50;;;;;;;20.74;45.48;100127.34;4404996;29;20076;-65
2023/11/23 18:10:53;;;;;;;2.60;2.40;;;;;;;20.78;45.19;100136.84;4405044;29;20044;-65
2023/11/23 18:13:06;;;;;;;2.60;2.20;;;;;;;20.79;45.31;100141.38;4404520;29;20036;-64
2023/11/23 18:15:21;;;;;;;2.30;2.10;;;;;;;20.79;45.02;100135.63;4404183;29;20044;-65
2023/11/23 18:17:32;;;;;;;2.50;2.30;;;;;;;20.78;45.13;100131.97;4404210;29;20037;-65
2023/11/23 18:19:44;;;;;;;2.42;2.22;;;;;;;20.77;45.41;100129.47;4390535;29;20454;-65
2023/11/23 18:22:04;;;;;;;2.10;1.90;;;;;;;20.77;45.44;100130.28;4404799;29;20647;-65
2023/11/23 18:24:21;;;;;;;2.40;2.20;;;;;;;20.76;45.32;100124.94;4403639;29;20059;-65
2023/11/23 18:26:32;;;;;;;3.00;2.10;;;;;;;20.74;45.43;100122.44;4404689;29;20047;-65
2023/11/23 18:28:43;;;;;;;2.47;2.15;;;;;;;20.76;45.32;100110.59;4404590;29;20115;-65
2023/11/23 18:30:53;;;;;;;2.50;2.30;;;;;;;20.76;45.70;100096.25;4403230;29;20078;-65
2023/11/23 18:33:05;;;;;;;2.28;2.03;;;;;;;20.76;45.47;100096.25;4404682;29;20076;-66
2023/11/23 18:35:18;;;;;;;2.65;2.10;;;;;;;20.75;45.70;100095.44;4404406;29;20036;-65
2023/11/23 18:37:30;;;;;;;1.98;1.88;;;;;;;20.77;45.57;100092.19;4405309;29;20818;-65
2023/11/23 18:39:51;;;;;;;2.83;1.90;;;;;;;20.75;45.63;100088.84;4404243;29;20067;-65
2023/11/23 18:42:11;;;;;;;2.20;2.00;;;;;;;20.76;45.82;100079.88;4403393;29;20205;-65
2023/11/23 18:44:25;;;;;;;1.83;1.73;;;;;;;20.76;45.65;100073.28;4404443;29;20132;-65
2023/11/23 18:46:44;;;;;;;2.63;2.00;;;;;;;20.77;45.61;100069.25;4403815;29;20052;-66
2023/11/23 18:49:02;;;;;;;2.95;1.85;;;;;;;20.75;45.63;100063.88;4404645;29;20044;-65
2023/11/23 18:51:13;;;;;;;1.92;1.77;;;;;;;20.75;45.79;100063.88;4404463;29;20033;-65
2023/11/23 18:53:23;;;;;;;1.92;1.83;;;;;;;20.76;45.38;100062.66;4386782;29;20493;-66
2023/11/23 18:55:35;;;;;;;2.88;1.85;;;;;;;20.76;45.47;100067.56;4404339;29;20203;-65
2023/11/23 18:57:46;;;;;;;2.30;2.10;;;;;;;20.76;45.54;100056.09;4401492;29;20040;-66
2023/11/23 18:59:56;;;;;;;2.63;2.40;;;;;;;20.66;46.19;100048.13;4404081;29;20060;-66
2023/11/23 19:02:07;;;;;;;2.58;2.38;;;;;;;20.61;45.52;100039.84;4403429;29;20040;-66
2023/11/23 19:04:18;;;;;;;2.40;1.95;;;;;;;20.60;45.84;100043.91;4403830;29;20049;-65
2023/11/23 19:06:30;;;;;;;2.30;2.10;;;;;;;20.60;45.55;100041.88;4403210;29;20398;-66
2023/11/23 19:08:46;;;;;;;2.15;1.90;;;;;;;20.59;45.76;100031.63;4404091;29;20032;-66
2023/11/23 19:10:59;;;;;;;1.88;1.75;;;;;;;20.60;46.04;100029.56;4404650;29;20104;-66
2023/11/23 19:13:09;;;;;;;2.40;1.92;;;;;;;20.59;45.78;100027.91;4404780;29;20132;-66
2023/11/23 19:15:23;;;;;;;2.22;2.00;;;;;;;20.58;45.84;100032.00;4404369;29;20044;-65
2023/11/23 19:17:34;;;;;;;2.00;1.80;;;;;;;20.58;46.18;100014.81;4387858;29;20101;-65
2023/11/23 19:19:47;;;;;;;2.00;1.90;;;;;;;20.58;46.17;100014.81;4404510;29;20497;-65
2023/11/23 19:22:02;;;;;;;2.00;1.80;;;;;;;20.58;46.31;100009.06;4402934;29;20048;-65
2023/11/23 19:24:13;;;;;;;2.10;1.92;;;;;;;20.58;45.91;100014.81;4404661;29;20544;-65
2023/11/23 19:26:25;;;;;;;1.73;1.63;;;;;;;20.57;45.99;100007.41;4404069;29;20037;-65
2023/11/23 19:28:36;;;;;;;1.80;1.70;;;;;;;20.57;46.40;100016.00;4404015;29;20044;-65
2023/11/23 19:30:47;;;;;;;2.47;1.77;;;;;;;20.57;46.13;100007.41;4404023;29;20093;-65
2023/11/23 19:33:03;;;;;;;2.30;1.83;;;;;;;20.56;46.00;100003.72;4403076;29;20041;-65
2023/11/23 19:35:16;;;;;;;2.50;2.07;;;;;;;20.56;46.23;100006.59;4403938;29;20048;-65
2023/11/23 19:37:27;;;;;;;1.80;1.70;;;;;;;20.57;46.26;99998.78;4402639;29;20041;-65
2023/11/23 19:39:38;;;;;;;1.83;1.73;;;;;;;20.57;46.33;100001.66;4404098;29;20056;-65
2023/11/23 19:41:50;;;;;;;1.92;1.83;;;;;;;20.55;46.20;99993.44;4403867;29;20071;-65
2023/11/23 19:44:01;;;;;;;1.70;1.60;;;;;;;20.56;46.16;99982.81;4404358;29;20087;-65
2023/11/23 19:46:12;;;;;;;1.90;1.60;;;;;;;20.56;46.11;99989.38;4403177;29;20116;-65
2023/11/23 19:48:23;;;;;;;2.20;2.00;;;;;;;20.49;46.18;99982.66;4404811;29;20056;-65